sensor_id;sensor_type;location;lat;lon;timestamp;pressure;altitude;pressure_sealevel;temperature;humidity
75617;BME280;64200;55.426;37.758;2023-06-10T00:00:36;99658.03;;;15.21;47.40
75617;BME280;64200;55.426;37.758;2023-06-10T00:05:38;99646.22;;;15.17;47.67
75617;BME280;64200;55.426;37.758;2023-06-10T00:10:39;99650.47;;;15.06;47.71
75617;BME280;64200;55.426;37.758;2023-06-10T00:15:39;99644.44;;;14.87;47.71
75617;BME280;64200;55.426;37.758;2023-06-10T00:20:40;99642.47;;;14.67;48.08
75617;BME280;64200;55.426;37.758;2023-06-10T00:25:41;99650.56;;;14.39;48.65
75617;BME280;64200;55.426;37.758;2023-06-10T00:30:41;99651.47;;;14.30;49.15
75617;BME280;64200;55.426;37.758;2023-06-10T00:35:42;99654.00;;;14.28;49.20
75617;BME280;64200;55.426;37.758;2023-06-10T00:40:42;99662.63;;;14.25;48.98
75617;BME280;64200;55.426;37.758;2023-06-10T00:45:43;99651.13;;;14.22;48.46
75617;BME280;64200;55.426;37.758;2023-06-10T00:50:45;99664.19;;;14.05;48.67
75617;BME280;64200;55.426;37.758;2023-06-10T00:55:47;99674.53;;;13.99;48.78
75617;BME280;64200;55.426;37.758;2023-06-10T01:00:48;99683.38;;;14.12;48.96
75617;BME280;64200;55.426;37.758;2023-06-10T01:05:56;99691.69;;;14.21;48.39
75617;BME280;64200;55.426;37.758;2023-06-10T01:11:04;99701.13;;;14.24;48.06
75617;BME280;64200;55.426;37.758;2023-06-10T01:16:07;99719.44;;;14.19;47.62
75617;BME280;64200;55.426;37.758;2023-06-10T01:21:07;99738.97;;;14.29;47.37
75617;BME280;64200;55.426;37.758;2023-06-10T01:26:10;99742.19;;;14.42;47.52
75617;BME280;64200;55.426;37.758;2023-06-10T01:31:18;99740.22;;;14.48;47.07
75617;BME280;64200;55.426;37.758;2023-06-10T01:36:22;99744.50;;;14.44;46.94
75617;BME280;64200;55.426;37.758;2023-06-10T01:41:24;99740.28;;;14.33;46.96
75617;BME280;64200;55.426;37.758;2023-06-10T01:46:25;99738.25;;;14.34;47.33
75617;BME280;64200;55.426;37.758;2023-06-10T01:51:25;99747.44;;;14.34;47.29
75617;BME280;64200;55.426;37.758;2023-06-10T01:56:26;99752.41;;;14.25;47.77
75617;BME280;64200;55.426;37.758;2023-06-10T02:01:26;99761.81;;;14.21;47.75
75617;BME280;64200;55.426;37.758;2023-06-10T02:06:27;99768.69;;;14.20;48.16
75617;BME280;64200;55.426;37.758;2023-06-10T02:11:27;99772.31;;;14.27;47.92
75617;BME280;64200;55.426;37.758;2023-06-10T02:16:28;99770.50;;;14.23;48.16
75617;BME280;64200;55.426;37.758;2023-06-10T02:21:28;99781.16;;;14.19;48.23
75617;BME280;64200;55.426;37.758;2023-06-10T02:26:29;99777.59;;;14.19;48.54
75617;BME280;64200;55.426;37.758;2023-06-10T02:31:29;99779.09;;;13.99;48.91
75617;BME280;64200;55.426;37.758;2023-06-10T02:36:30;99775.03;;;13.85;48.93
75617;BME280;64200;55.426;37.758;2023-06-10T02:41:31;99773.13;;;13.77;48.94
75617;BME280;64200;55.426;37.758;2023-06-10T02:46:32;99777.84;;;13.70;49.48
75617;BME280;64200;55.426;37.758;2023-06-10T02:51:32;99791.22;;;13.76;49.50
75617;BME280;64200;55.426;37.758;2023-06-10T02:56:33;99772.34;;;13.76;49.88
75617;BME280;64200;55.426;37.758;2023-06-10T03:01:34;99776.03;;;13.67;49.61
75617;BME280;64200;55.426;37.758;2023-06-10T03:06:37;99783.38;;;13.50;50.01
75617;BME280;64200;55.426;37.758;2023-06-10T03:11:38;99781.16;;;13.54;50.11
75617;BME280;64200;55.426;37.758;2023-06-10T03:16:39;99794.31;;;13.63;49.93
75617;BME280;64200;55.426;37.758;2023-06-10T03:21:44;99798.44;;;13.67;49.91
75617;BME280;64200;55.426;37.758;2023-06-10T03:26:45;99803.69;;;13.75;49.64
75617;BME280;64200;55.426;37.758;2023-06-10T03:31:46;99796.13;;;13.81;49.37
75617;BME280;64200;55.426;37.758;2023-06-10T03:36:46;99808.69;;;13.85;48.93
75617;BME280;64200;55.426;37.758;2023-06-10T03:41:47;99810.13;;;13.81;48.73
75617;BME280;64200;55.426;37.758;2023-06-10T03:46:47;99820.88;;;13.82;48.57
75617;BME280;64200;55.426;37.758;2023-06-10T03:51:48;99813.13;;;13.92;48.44
75617;BME280;64200;55.426;37.758;2023-06-10T03:56:48;99805.41;;;14.02;48.66
75617;BME280;64200;55.426;37.758;2023-06-10T04:01:49;99804.97;;;14.09;48.03
75617;BME280;64200;55.426;37.758;2023-06-10T04:06:49;99821.84;;;14.30;47.76
75617;BME280;64200;55.426;37.758;2023-06-10T04:11:50;99827.16;;;14.43;47.59
75617;BME280;64200;55.426;37.758;2023-06-10T04:16:51;99833.13;;;14.50;47.28
75617;BME280;64200;55.426;37.758;2023-06-10T04:21:52;99836.91;;;14.47;47.10
75617;BME280;64200;55.426;37.758;2023-06-10T04:26:52;99833.59;;;14.49;46.73
75617;BME280;64200;55.426;37.758;2023-06-10T04:31:53;99830.81;;;14.49;46.97
75617;BME280;64200;55.426;37.758;2023-06-10T04:36:53;99831.13;;;14.71;46.43
75617;BME280;64200;55.426;37.758;2023-06-10T04:41:54;99845.47;;;14.73;46.23
75617;BME280;64200;55.426;37.758;2023-06-10T04:46:55;99850.88;;;14.98;46.34
75617;BME280;64200;55.426;37.758;2023-06-10T04:51:56;99842.94;;;14.75;46.19
75617;BME280;64200;55.426;37.758;2023-06-10T04:56:56;99845.97;;;14.92;45.80
75617;BME280;64200;55.426;37.758;2023-06-10T05:01:57;99852.25;;;15.08;45.61
75617;BME280;64200;55.426;37.758;2023-06-10T05:07:01;99866.47;;;14.99;44.88
75617;BME280;64200;55.426;37.758;2023-06-10T05:12:02;99856.91;;;14.90;45.53
75617;BME280;64200;55.426;37.758;2023-06-10T05:17:05;99870.75;;;15.15;45.01
75617;BME280;64200;55.426;37.758;2023-06-10T05:22:06;99873.03;;;15.37;44.88
75617;BME280;64200;55.426;37.758;2023-06-10T05:27:06;99878.19;;;14.97;44.57
75617;BME280;64200;55.426;37.758;2023-06-10T05:32:07;99877.69;;;15.40;44.94
75617;BME280;64200;55.426;37.758;2023-06-10T05:37:08;99888.63;;;15.85;44.39
75617;BME280;64200;55.426;37.758;2023-06-10T05:42:09;99883.34;;;15.72;43.40
75617;BME280;64200;55.426;37.758;2023-06-10T05:47:10;99893.56;;;15.95;43.63
75617;BME280;64200;55.426;37.758;2023-06-10T05:52:11;99894.16;;;16.37;43.17
75617;BME280;64200;55.426;37.758;2023-06-10T05:57:11;99882.03;;;16.57;42.67
75617;BME280;64200;55.426;37.758;2023-06-10T06:02:12;99889.56;;;16.77;41.76
75617;BME280;64200;55.426;37.758;2023-06-10T06:07:12;99884.13;;;16.68;41.26
75617;BME280;64200;55.426;37.758;2023-06-10T06:12:13;99884.91;;;17.23;41.49
75617;BME280;64200;55.426;37.758;2023-06-10T06:17:13;99900.03;;;17.20;39.54
75617;BME280;64200;55.426;37.758;2023-06-10T06:22:14;99895.53;;;17.56;40.01
75617;BME280;64200;55.426;37.758;2023-06-10T06:27:15;99896.09;;;17.66;38.14
75617;BME280;64200;55.426;37.758;2023-06-10T06:32:16;99898.94;;;17.83;37.97
75617;BME280;64200;55.426;37.758;2023-06-10T06:37:16;99904.31;;;17.81;37.01
75617;BME280;64200;55.426;37.758;2023-06-10T06:42:17;99919.00;;;18.48;37.00
75617;BME280;64200;55.426;37.758;2023-06-10T06:47:18;99925.66;;;18.50;36.23
75617;BME280;64200;55.426;37.758;2023-06-10T06:52:20;99916.03;;;19.16;35.28
75617;BME280;64200;55.426;37.758;2023-06-10T06:57:20;99918.94;;;19.57;33.97
75617;BME280;64200;55.426;37.758;2023-06-10T07:02:21;99925.00;;;19.73;32.74
75617;BME280;64200;55.426;37.758;2023-06-10T07:07:22;99921.91;;;20.18;33.20
75617;BME280;64200;55.426;37.758;2023-06-10T07:12:22;99926.66;;;19.98;31.50
75617;BME280;64200;55.426;37.758;2023-06-10T07:17:24;99926.63;;;20.65;31.22
75617;BME280;64200;55.426;37.758;2023-06-10T07:22:24;99932.44;;;21.03;30.39
75617;BME280;64200;55.426;37.758;2023-06-10T07:27:25;99948.22;;;20.98;29.23
75617;BME280;64200;55.426;37.758;2023-06-10T07:32:26;99952.25;;;20.23;29.73
75617;BME280;64200;55.426;37.758;2023-06-10T07:37:26;99953.94;;;20.68;30.03
75617;BME280;64200;55.426;37.758;2023-06-10T07:42:27;99958.63;;;21.97;28.50
75617;BME280;64200;55.426;37.758;2023-06-10T07:47:27;99945.66;;;23.06;26.98
75617;BME280;64200;55.426;37.758;2023-06-10T07:52:28;99952.25;;;23.28;26.69
75617;BME280;64200;55.426;37.758;2023-06-10T07:57:29;99950.03;;;21.64;27.59
75617;BME280;64200;55.426;37.758;2023-06-10T08:02:34;99954.69;;;20.38;28.18
75617;BME280;64200;55.426;37.758;2023-06-10T08:07:35;99966.69;;;23.17;27.01
75617;BME280;64200;55.426;37.758;2023-06-10T08:12:36;99972.84;;;25.66;22.41
75617;BME280;64200;55.426;37.758;2023-06-10T08:17:37;99970.97;;;28.10;20.75
75617;BME280;64200;55.426;37.758;2023-06-10T08:22:38;99977.28;;;25.83;20.31
75617;BME280;64200;55.426;37.758;2023-06-10T08:27:41;99971.59;;;22.76;23.60
75617;BME280;64200;55.426;37.758;2023-06-10T08:32:42;99978.06;;;23.43;24.72
75617;BME280;64200;55.426;37.758;2023-06-10T08:37:42;99979.34;;;28.91;19.29
75617;BME280;64200;55.426;37.758;2023-06-10T08:42:49;99982.19;;;31.08;17.05
75617;BME280;64200;55.426;37.758;2023-06-10T08:47:53;99989.59;;;26.14;19.04
75617;BME280;64200;55.426;37.758;2023-06-10T08:52:57;99980.22;;;22.84;22.50
75617;BME280;64200;55.426;37.758;2023-06-10T08:58:01;99987.19;;;22.04;23.81
75617;BME280;64200;55.426;37.758;2023-06-10T09:03:04;99983.13;;;21.62;25.02
75617;BME280;64200;55.426;37.758;2023-06-10T09:08:07;99989.16;;;22.09;25.19
75617;BME280;64200;55.426;37.758;2023-06-10T09:13:09;99993.31;;;22.08;25.14
75617;BME280;64200;55.426;37.758;2023-06-10T09:18:10;99987.63;;;24.28;24.21
75617;BME280;64200;55.426;37.758;2023-06-10T09:23:10;100004.47;;;23.17;23.20
75617;BME280;64200;55.426;37.758;2023-06-10T09:28:15;99993.66;;;24.25;24.09
75617;BME280;64200;55.426;37.758;2023-06-10T09:33:16;100008.69;;;30.22;17.66
75617;BME280;64200;55.426;37.758;2023-06-10T09:38:21;100018.78;;;32.85;14.51
75617;BME280;64200;55.426;37.758;2023-06-10T09:43:22;100013.81;;;34.77;13.17
75617;BME280;64200;55.426;37.758;2023-06-10T09:48:22;100008.88;;;27.93;15.46
75617;BME280;64200;55.426;37.758;2023-06-10T09:53:23;100009.44;;;24.60;18.76
75617;BME280;64200;55.426;37.758;2023-06-10T09:58:39;100011.50;;;30.77;16.36
75617;BME280;64200;55.426;37.758;2023-06-10T10:03:46;100010.09;;;33.72;12.50
75617;BME280;64200;55.426;37.758;2023-06-10T10:08:48;99998.34;;;28.62;13.95
75617;BME280;64200;55.426;37.758;2023-06-10T10:13:51;100004.19;;;31.03;14.63
75617;BME280;64200;55.426;37.758;2023-06-10T10:18:56;100019.78;;;33.43;12.25
75617;BME280;64200;55.426;37.758;2023-06-10T10:24:13;100013.25;;;34.21;11.15
75617;BME280;64200;55.426;37.758;2023-06-10T10:29:29;100003.88;;;31.09;13.51
75617;BME280;64200;55.426;37.758;2023-06-10T10:34:37;100002.22;;;31.94;12.12
75617;BME280;64200;55.426;37.758;2023-06-10T10:39:39;99997.66;;;26.62;14.97
75617;BME280;64200;55.426;37.758;2023-06-10T10:44:40;100000.09;;;29.42;15.55
75617;BME280;64200;55.426;37.758;2023-06-10T10:49:43;100025.59;;;33.12;11.49
75617;BME280;64200;55.426;37.758;2023-06-10T10:54:46;100020.28;;;34.06;10.56
75617;BME280;64200;55.426;37.758;2023-06-10T10:59:58;100018.03;;;33.06;10.99
75617;BME280;64200;55.426;37.758;2023-06-10T11:05:06;100004.91;;;27.17;14.56
75617;BME280;64200;55.426;37.758;2023-06-10T11:10:12;100007.38;;;26.36;16.20
75617;BME280;64200;55.426;37.758;2023-06-10T11:15:13;100008.19;;;30.43;14.57
75617;BME280;64200;55.426;37.758;2023-06-10T11:25:47;100015.59;;;33.68;10.64
75617;BME280;64200;55.426;37.758;2023-06-10T11:30:57;100020.19;;;29.77;12.45
75617;BME280;64200;55.426;37.758;2023-06-10T11:35:57;100014.59;;;30.52;13.25
75617;BME280;64200;55.426;37.758;2023-06-10T11:41:02;100022.25;;;31.43;11.87
75617;BME280;64200;55.426;37.758;2023-06-10T11:46:02;100019.75;;;27.39;13.52
75617;BME280;64200;55.426;37.758;2023-06-10T11:51:07;100012.88;;;25.08;16.10
75617;BME280;64200;55.426;37.758;2023-06-10T11:56:08;100024.47;;;30.04;14.36
75617;BME280;64200;55.426;37.758;2023-06-10T12:01:08;100016.13;;;28.02;13.81
75617;BME280;64200;55.426;37.758;2023-06-10T12:06:09;100013.38;;;24.78;16.90
75617;BME280;64200;55.426;37.758;2023-06-10T12:11:10;100017.25;;;23.64;19.29
75617;BME280;64200;55.426;37.758;2023-06-10T12:16:11;100005.69;;;23.22;18.89
75617;BME280;64200;55.426;37.758;2023-06-10T12:21:17;100017.50;;;23.12;18.83
75617;BME280;64200;55.426;37.758;2023-06-10T12:26:18;100010.59;;;23.21;18.70
75617;BME280;64200;55.426;37.758;2023-06-10T12:31:18;100013.28;;;22.87;19.24
75617;BME280;64200;55.426;37.758;2023-06-10T12:36:20;100019.16;;;22.75;18.59
75617;BME280;64200;55.426;37.758;2023-06-10T12:41:20;100009.31;;;22.44;19.11
75617;BME280;64200;55.426;37.758;2023-06-10T12:46:21;100009.44;;;22.52;19.63
75617;BME280;64200;55.426;37.758;2023-06-10T12:51:21;100013.97;;;22.28;20.02
75617;BME280;64200;55.426;37.758;2023-06-10T12:56:22;100006.22;;;21.90;20.47
75617;BME280;64200;55.426;37.758;2023-06-10T13:01:24;100007.44;;;21.76;20.67
75617;BME280;64200;55.426;37.758;2023-06-10T13:06:24;100016.88;;;22.03;20.40
75617;BME280;64200;55.426;37.758;2023-06-10T13:11:25;100008.50;;;21.92;20.36
75617;BME280;64200;55.426;37.758;2023-06-10T13:16:26;100006.59;;;21.37;20.67
75617;BME280;64200;55.426;37.758;2023-06-10T13:21:26;100008.22;;;21.08;20.78
75617;BME280;64200;55.426;37.758;2023-06-10T13:26:27;100010.38;;;21.46;20.50
75617;BME280;64200;55.426;37.758;2023-06-10T13:31:27;100006.06;;;22.02;20.23
75617;BME280;64200;55.426;37.758;2023-06-10T13:36:28;100007.06;;;20.92;21.24
75617;BME280;64200;55.426;37.758;2023-06-10T13:41:28;100008.31;;;20.97;21.21
75617;BME280;64200;55.426;37.758;2023-06-10T13:46:29;100008.06;;;20.70;21.32
75617;BME280;64200;55.426;37.758;2023-06-10T13:51:30;100008.97;;;21.09;21.74
75617;BME280;64200;55.426;37.758;2023-06-10T13:56:30;100012.16;;;20.99;21.44
75617;BME280;64200;55.426;37.758;2023-06-10T14:01:31;100015.16;;;20.82;21.41
75617;BME280;64200;55.426;37.758;2023-06-10T14:06:32;100012.34;;;20.77;22.02
75617;BME280;64200;55.426;37.758;2023-06-10T14:11:33;100013.84;;;20.83;22.64
75617;BME280;64200;55.426;37.758;2023-06-10T14:16:34;100011.25;;;20.85;22.75
75617;BME280;64200;55.426;37.758;2023-06-10T14:21:34;100023.28;;;20.61;22.64
75617;BME280;64200;55.426;37.758;2023-06-10T14:26:35;100022.81;;;20.21;23.12
75617;BME280;64200;55.426;37.758;2023-06-10T14:31:35;100024.06;;;19.78;23.90
75617;BME280;64200;55.426;37.758;2023-06-10T14:36:36;100008.47;;;20.13;23.66
75617;BME280;64200;55.426;37.758;2023-06-10T14:41:37;100027.94;;;19.75;23.83
75617;BME280;64200;55.426;37.758;2023-06-10T14:46:37;100023.00;;;19.93;24.25
75617;BME280;64200;55.426;37.758;2023-06-10T14:51:38;100020.09;;;19.98;23.76
75617;BME280;64200;55.426;37.758;2023-06-10T14:56:38;100016.66;;;20.17;24.12
75617;BME280;64200;55.426;37.758;2023-06-10T15:01:39;100017.19;;;19.57;23.82
75617;BME280;64200;55.426;37.758;2023-06-10T15:06:39;100024.78;;;19.20;24.37
75617;BME280;64200;55.426;37.758;2023-06-10T15:11:41;100029.41;;;19.01;24.76
75617;BME280;64200;55.426;37.758;2023-06-10T15:16:42;100032.75;;;18.71;25.59
75617;BME280;64200;55.426;37.758;2023-06-10T15:21:43;100035.31;;;18.52;25.83
75617;BME280;64200;55.426;37.758;2023-06-10T15:26:43;100041.47;;;18.39;25.76
75617;BME280;64200;55.426;37.758;2023-06-10T15:31:44;100031.69;;;18.23;26.11
75617;BME280;64200;55.426;37.758;2023-06-10T15:36:44;100047.78;;;18.00;26.76
75617;BME280;64200;55.426;37.758;2023-06-10T15:41:45;100060.72;;;18.29;26.21
75617;BME280;64200;55.426;37.758;2023-06-10T15:46:45;100044.19;;;17.94;27.21
75617;BME280;64200;55.426;37.758;2023-06-10T15:51:46;100063.31;;;17.67;28.06
75617;BME280;64200;55.426;37.758;2023-06-10T15:56:47;100074.41;;;17.33;28.15
75617;BME280;64200;55.426;37.758;2023-06-10T16:01:47;100070.53;;;17.30;27.84
75617;BME280;64200;55.426;37.758;2023-06-10T16:06:48;100070.28;;;17.28;27.86
75617;BME280;64200;55.426;37.758;2023-06-10T16:11:49;100088.16;;;17.19;28.31
75617;BME280;64200;55.426;37.758;2023-06-10T16:16:49;100083.56;;;17.22;27.79
75617;BME280;64200;55.426;37.758;2023-06-10T16:21:50;100100.03;;;17.29;27.90
75617;BME280;64200;55.426;37.758;2023-06-10T16:26:51;100096.59;;;17.19;28.13
75617;BME280;64200;55.426;37.758;2023-06-10T16:31:51;100095.91;;;16.93;28.79
75617;BME280;64200;55.426;37.758;2023-06-10T16:36:52;100102.44;;;16.84;29.27
75617;BME280;64200;55.426;37.758;2023-06-10T16:41:53;100122.56;;;16.97;29.47
75617;BME280;64200;55.426;37.758;2023-06-10T16:46:53;100121.84;;;17.02;29.20
75617;BME280;64200;55.426;37.758;2023-06-10T16:51:54;100121.50;;;16.95;29.43
75617;BME280;64200;55.426;37.758;2023-06-10T16:56:54;100125.66;;;16.73;30.02
75617;BME280;64200;55.426;37.758;2023-06-10T17:01:55;100126.59;;;16.64;30.13
75617;BME280;64200;55.426;37.758;2023-06-10T17:06:55;100141.56;;;16.76;30.04
75617;BME280;64200;55.426;37.758;2023-06-10T17:11:56;100148.63;;;16.66;30.56
75617;BME280;64200;55.426;37.758;2023-06-10T17:16:57;100153.66;;;16.56;30.52
75617;BME280;64200;55.426;37.758;2023-06-10T17:21:59;100161.09;;;16.59;30.71
75617;BME280;64200;55.426;37.758;2023-06-10T17:26:59;100154.97;;;16.35;31.13
75617;BME280;64200;55.426;37.758;2023-06-10T17:32:00;100155.66;;;16.09;31.35
75617;BME280;64200;55.426;37.758;2023-06-10T17:37:01;100156.44;;;15.89;31.62
75617;BME280;64200;55.426;37.758;2023-06-10T17:42:02;100167.41;;;15.87;31.63
75617;BME280;64200;55.426;37.758;2023-06-10T17:47:03;100170.81;;;15.76;31.50
75617;BME280;64200;55.426;37.758;2023-06-10T17:52:04;100164.94;;;15.59;31.39
75617;BME280;64200;55.426;37.758;2023-06-10T17:57:05;100165.03;;;15.50;31.66
75617;BME280;64200;55.426;37.758;2023-06-10T18:02:06;100179.50;;;15.42;31.57
75617;BME280;64200;55.426;37.758;2023-06-10T18:07:09;100197.75;;;15.47;31.41
75617;BME280;64200;55.426;37.758;2023-06-10T18:12:10;100200.25;;;15.45;31.58
75617;BME280;64200;55.426;37.758;2023-06-10T18:17:11;100204.03;;;15.27;31.90
75617;BME280;64200;55.426;37.758;2023-06-10T18:22:11;100214.44;;;15.06;32.30
75617;BME280;64200;55.426;37.758;2023-06-10T18:27:12;100201.34;;;15.03;32.55
75617;BME280;64200;55.426;37.758;2023-06-10T18:32:13;100205.69;;;15.04;32.24
75617;BME280;64200;55.426;37.758;2023-06-10T18:37:13;100218.88;;;14.98;32.60
75617;BME280;64200;55.426;37.758;2023-06-10T18:42:16;100224.19;;;14.81;33.00
75617;BME280;64200;55.426;37.758;2023-06-10T18:47:16;100231.78;;;14.65;33.42
75617;BME280;64200;55.426;37.758;2023-06-10T18:52:17;100229.31;;;14.58;33.76
75617;BME280;64200;55.426;37.758;2023-06-10T18:57:17;100239.19;;;14.53;33.96
75617;BME280;64200;55.426;37.758;2023-06-10T19:02:18;100237.69;;;14.43;33.81
75617;BME280;64200;55.426;37.758;2023-06-10T19:07:18;100254.19;;;14.26;34.52
75617;BME280;64200;55.426;37.758;2023-06-10T19:12:19;100262.78;;;14.22;34.39
75617;BME280;64200;55.426;37.758;2023-06-10T19:17:21;100255.06;;;14.08;34.59
75617;BME280;64200;55.426;37.758;2023-06-10T19:22:21;100261.44;;;14.09;34.68
75617;BME280;64200;55.426;37.758;2023-06-10T19:27:22;100266.78;;;13.97;34.91
75617;BME280;64200;55.426;37.758;2023-06-10T19:32:23;100270.56;;;13.94;34.89
75617;BME280;64200;55.426;37.758;2023-06-10T19:37:24;100274.03;;;13.89;34.92
75617;BME280;64200;55.426;37.758;2023-06-10T19:42:25;100274.06;;;13.80;35.57
75617;BME280;64200;55.426;37.758;2023-06-10T19:47:25;100277.69;;;13.71;35.54
75617;BME280;64200;55.426;37.758;2023-06-10T19:52:26;100273.34;;;13.61;35.72
75617;BME280;64200;55.426;37.758;2023-06-10T19:57:27;100288.16;;;13.52;36.35
75617;BME280;64200;55.426;37.758;2023-06-10T20:02:28;100279.47;;;13.41;35.97
75617;BME280;64200;55.426;37.758;2023-06-10T20:07:28;100283.66;;;13.27;36.24
75617;BME280;64200;55.426;37.758;2023-06-10T20:12:29;100291.63;;;13.19;36.15
75617;BME280;64200;55.426;37.758;2023-06-10T20:17:30;100284.63;;;13.05;36.54
75617;BME280;64200;55.426;37.758;2023-06-10T20:22:30;100292.09;;;12.99;36.42
75617;BME280;64200;55.426;37.758;2023-06-10T20:27:32;100308.72;;;13.03;36.64
75617;BME280;64200;55.426;37.758;2023-06-10T20:32:32;100316.19;;;12.96;36.82
75617;BME280;64200;55.426;37.758;2023-06-10T20:37:33;100315.91;;;12.94;37.00
75617;BME280;64200;55.426;37.758;2023-06-10T20:42:33;100318.06;;;12.81;37.10
75617;BME280;64200;55.426;37.758;2023-06-10T20:47:34;100320.06;;;12.62;37.44
75617;BME280;64200;55.426;37.758;2023-06-10T20:52:35;100331.72;;;12.60;36.94
75617;BME280;64200;55.426;37.758;2023-06-10T20:57:35;100343.69;;;12.61;37.19
75617;BME280;64200;55.426;37.758;2023-06-10T21:02:36;100346.00;;;12.53;37.41
75617;BME280;64200;55.426;37.758;2023-06-10T21:07:37;100355.16;;;12.44;38.06
75617;BME280;64200;55.426;37.758;2023-06-10T21:12:37;100335.38;;;12.29;38.50
75617;BME280;64200;55.426;37.758;2023-06-10T21:17:38;100348.44;;;12.33;38.46
75617;BME280;64200;55.426;37.758;2023-06-10T21:22:38;100340.13;;;12.10;39.13
75617;BME280;64200;55.426;37.758;2023-06-10T21:27:39;100345.63;;;12.23;38.52
75617;BME280;64200;55.426;37.758;2023-06-10T21:32:39;100345.44;;;12.18;38.70
75617;BME280;64200;55.426;37.758;2023-06-10T21:37:40;100345.72;;;12.10;39.21
75617;BME280;64200;55.426;37.758;2023-06-10T21:42:41;100350.66;;;12.06;39.32
75617;BME280;64200;55.426;37.758;2023-06-10T21:47:41;100352.66;;;11.97;39.83
75617;BME280;64200;55.426;37.758;2023-06-10T21:52:42;100360.16;;;11.87;40.48
75617;BME280;64200;55.426;37.758;2023-06-10T21:57:42;100356.56;;;11.77;40.46
75617;BME280;64200;55.426;37.758;2023-06-10T22:02:43;100363.19;;;11.70;40.41
75617;BME280;64200;55.426;37.758;2023-06-10T22:07:44;100365.00;;;11.64;40.92
75617;BME280;64200;55.426;37.758;2023-06-10T22:12:44;100360.34;;;11.61;40.63
75617;BME280;64200;55.426;37.758;2023-06-10T22:17:45;100358.78;;;11.60;40.64
75617;BME280;64200;55.426;37.758;2023-06-10T22:22:45;100362.44;;;11.48;41.24
75617;BME280;64200;55.426;37.758;2023-06-10T22:27:46;100355.22;;;11.37;41.48
75617;BME280;64200;55.426;37.758;2023-06-10T22:32:47;100364.00;;;11.27;41.99
75617;BME280;64200;55.426;37.758;2023-06-10T22:37:47;100368.47;;;11.24;41.76
75617;BME280;64200;55.426;37.758;2023-06-10T22:42:48;100367.47;;;11.18;41.91
75617;BME280;64200;55.426;37.758;2023-06-10T22:47:48;100363.22;;;11.13;42.22
75617;BME280;64200;55.426;37.758;2023-06-10T22:52:49;100362.38;;;11.03;42.45
75617;BME280;64200;55.426;37.758;2023-06-10T22:57:50;100365.28;;;11.00;42.76
75617;BME280;64200;55.426;37.758;2023-06-10T23:02:50;100363.28;;;11.00;43.01
75617;BME280;64200;55.426;37.758;2023-06-10T23:07:51;100366.44;;;10.89;43.28
75617;BME280;64200;55.426;37.758;2023-06-10T23:12:52;100371.03;;;10.83;43.43
75617;BME280;64200;55.426;37.758;2023-06-10T23:17:52;100368.94;;;10.75;44.17
75617;BME280;64200;55.426;37.758;2023-06-10T23:22:55;100368.75;;;10.69;44.05
75617;BME280;64200;55.426;37.758;2023-06-10T23:27:56;100365.97;;;10.56;45.20
75617;BME280;64200;55.426;37.758;2023-06-10T23:32:56;100361.94;;;10.57;44.26
75617;BME280;64200;55.426;37.758;2023-06-10T23:37:58;100373.31;;;10.63;44.83
75617;BME280;64200;55.426;37.758;2023-06-10T23:42:59;100378.25;;;10.59;45.09
75617;BME280;64200;55.426;37.758;2023-06-10T23:48:00;100382.25;;;10.58;44.62
75617;BME280;64200;55.426;37.758;2023-06-10T23:53:01;100386.59;;;10.46;45.27
75617;BME280;64200;55.426;37.758;2023-06-10T23:58:03;100386.75;;;10.42;45.64
